createdAt,value
2023-02-14T00:04:44.340Z,5.20
2023-02-14T00:10:15.458Z,6.30
2023-02-14T00:15:47.024Z,6.25
2023-02-14T00:21:18.407Z,5.95
2023-02-14T00:26:50.525Z,5.60
2023-02-14T00:32:21.693Z,5.53
2023-02-14T00:37:52.808Z,6.00
2023-02-14T00:43:23.970Z,6.00
2023-02-14T00:48:55.564Z,5.85
2023-02-14T00:54:26.880Z,5.85
2023-02-14T00:59:58.841Z,6.00
2023-02-14T01:05:31.422Z,5.93
2023-02-14T01:11:14.491Z,6.15
2023-02-14T01:16:45.637Z,5.88
2023-02-14T01:22:16.859Z,5.97
2023-02-14T01:27:48.571Z,5.63
2023-02-14T01:33:19.589Z,6.65
2023-02-14T01:38:57.055Z,5.65
2023-02-14T01:44:28.412Z,5.68
2023-02-14T01:50:14.031Z,5.80
2023-02-14T01:55:48.763Z,5.80
2023-02-14T02:01:20.427Z,4.97
2023-02-14T02:06:55.759Z,5.47
2023-02-14T02:12:29.792Z,5.25
2023-02-14T02:18:08.783Z,5.22
2023-02-14T02:23:46.119Z,5.93
2023-02-14T02:29:29.429Z,5.70
2023-02-14T02:35:28.175Z,5.57
2023-02-14T02:41:05.320Z,5.38
2023-02-14T02:46:47.791Z,5.60
2023-02-14T02:52:54.184Z,5.50
2023-02-14T02:58:31.172Z,5.15
2023-02-14T03:04:27.714Z,5.30
2023-02-14T03:10:00.616Z,5.40
2023-02-14T03:15:47.213Z,5.07
2023-02-14T03:21:52.820Z,5.80
2023-02-14T03:27:40.132Z,5.57
2023-02-14T03:33:19.451Z,5.72
2023-02-14T03:39:08.485Z,5.20
2023-02-14T03:44:42.373Z,6.13
2023-02-14T03:50:18.803Z,5.82
2023-02-14T03:56:04.488Z,5.95
2023-02-14T04:01:39.463Z,6.65
2023-02-14T04:07:12.423Z,6.00
2023-02-14T04:12:44.002Z,6.50
2023-02-14T04:18:34.102Z,6.20
2023-02-14T04:24:05.826Z,6.53
2023-02-14T04:29:38.408Z,7.13
2023-02-14T04:35:09.688Z,5.85
2023-02-14T04:40:40.877Z,7.25
2023-02-14T04:46:11.952Z,6.88
2023-02-14T04:51:43.461Z,6.57
2023-02-14T04:57:14.560Z,7.35
2023-02-14T05:02:45.893Z,7.90
2023-02-14T05:08:16.912Z,8.02
2023-02-14T05:13:47.936Z,7.70
2023-02-14T05:19:18.815Z,7.88
2023-02-14T05:24:50.517Z,7.15
2023-02-14T05:30:28.159Z,7.65
2023-02-14T05:36:03.176Z,7.28
2023-02-14T05:41:34.284Z,7.32
2023-02-14T05:47:05.615Z,7.85
2023-02-14T05:52:37.476Z,7.93
2023-02-14T05:58:08.634Z,8.10
2023-02-14T06:03:39.702Z,7.43
2023-02-14T06:09:10.897Z,7.65
2023-02-14T06:14:43.326Z,7.20
2023-02-14T06:20:14.536Z,7.45
2023-02-14T06:25:45.901Z,7.43
2023-02-14T06:31:18.222Z,7.68
2023-02-14T06:36:49.524Z,7.55
2023-02-14T06:42:20.845Z,6.68
2023-02-14T06:47:52.245Z,7.10
2023-02-14T06:53:23.247Z,7.28
2023-02-14T06:58:54.646Z,7.68
2023-02-14T07:04:25.928Z,7.00
2023-02-14T07:09:57.040Z,7.63
2023-02-14T07:15:28.439Z,7.00
2023-02-14T07:20:59.944Z,6.32
2023-02-14T07:26:31.583Z,7.18
2023-02-14T07:32:02.963Z,6.80
2023-02-14T07:37:35.639Z,6.50
2023-02-14T07:43:08.156Z,6.50
2023-02-14T07:48:39.929Z,6.97
2023-02-14T07:54:11.647Z,6.70
2023-02-14T07:59:42.719Z,6.57
2023-02-14T08:05:15.033Z,5.93
2023-02-14T08:10:46.386Z,6.68
2023-02-14T08:16:17.754Z,6.88
2023-02-14T08:21:48.844Z,6.13
2023-02-14T08:27:19.774Z,6.47
2023-02-14T08:32:50.843Z,5.70
2023-02-14T08:38:22.505Z,6.28
2023-02-14T08:43:54.071Z,6.10
2023-02-14T08:49:25.104Z,6.65
2023-02-14T08:54:56.289Z,6.75
2023-02-14T09:00:27.775Z,6.18
2023-02-14T09:06:04.930Z,6.45
2023-02-14T09:11:36.494Z,6.32
2023-02-14T09:17:08.078Z,6.47
2023-02-14T09:22:39.355Z,6.35
2023-02-14T09:28:10.710Z,6.45
2023-02-14T09:33:42.885Z,6.00
2023-02-14T09:39:14.155Z,6.97
2023-02-14T09:45:15.571Z,6.47
2023-02-14T09:50:54.563Z,6.70
2023-02-14T09:56:26.515Z,6.68
2023-02-14T10:02:00.138Z,6.47
2023-02-14T10:08:08.183Z,6.07
2023-02-14T10:13:47.165Z,6.47
2023-02-14T10:19:32.571Z,6.95
2023-02-14T10:25:08.640Z,6.90
2023-02-14T10:30:42.407Z,6.80
2023-02-14T10:36:51.913Z,6.30
2023-02-14T10:42:30.145Z,6.57
2023-02-14T10:48:09.542Z,7.55
2023-02-14T10:53:54.812Z,6.75
2023-02-14T10:59:28.866Z,6.93
2023-02-14T11:05:01.702Z,7.18
2023-02-14T11:10:35.903Z,6.55
2023-02-14T11:16:12.588Z,6.93
2023-02-14T11:21:46.262Z,6.80
2023-02-14T11:27:18.341Z,7.60
2023-02-14T11:32:55.306Z,7.13
2023-02-14T11:38:36.565Z,6.88
2023-02-14T11:44:22.435Z,7.30
2023-02-14T11:50:01.430Z,6.90
2023-02-14T11:55:34.011Z,7.15
2023-02-14T12:01:06.124Z,7.30
2023-02-14T12:06:37.472Z,7.45
2023-02-14T12:12:20.573Z,7.20
2023-02-14T12:18:15.150Z,6.90
2023-02-14T12:23:49.313Z,7.10
2023-02-14T12:29:39.574Z,6.60
2023-02-14T12:35:15.957Z,7.22
2023-02-14T12:41:05.303Z,7.22
2023-02-14T12:46:45.181Z,7.30
2023-02-14T12:52:37.616Z,7.18
2023-02-14T12:58:30.175Z,7.20
2023-02-14T13:04:23.280Z,7.60
2023-02-14T13:10:02.845Z,7.28
2023-02-14T13:15:39.228Z,7.70
2023-02-14T13:21:12.303Z,7.45
2023-02-14T13:26:45.458Z,8.13
2023-02-14T13:32:20.643Z,7.55
2023-02-14T13:38:07.171Z,8.23
2023-02-14T13:43:57.948Z,8.55
2023-02-14T13:49:34.993Z,8.57
2023-02-14T13:55:15.151Z,7.95
2023-02-14T14:00:48.278Z,9.02
2023-02-14T14:06:19.398Z,8.90
2023-02-14T14:11:51.534Z,9.13
2023-02-14T14:17:26.266Z,9.35
2023-02-14T14:22:59.089Z,9.65
2023-02-14T14:28:32.824Z,9.68
2023-02-14T14:34:03.752Z,9.15
2023-02-14T14:39:36.442Z,9.05
2023-02-14T14:45:18.694Z,9.40
2023-02-14T14:50:50.962Z,9.18
2023-02-14T14:56:27.828Z,9.07
2023-02-14T15:01:59.237Z,10.05
2023-02-14T15:07:34.804Z,9.18
2023-02-14T15:13:28.085Z,10.20
2023-02-14T15:19:21.433Z,9.90
2023-02-14T15:24:53.929Z,10.57
2023-02-14T15:30:34.865Z,9.95
2023-02-14T15:36:09.326Z,9.75
2023-02-14T15:41:44.504Z,10.65
2023-02-14T15:47:16.048Z,10.55
2023-02-14T15:52:48.646Z,11.25
2023-02-14T15:58:26.864Z,10.90
2023-02-14T16:04:00.615Z,10.95
2023-02-14T16:09:34.769Z,10.90
2023-02-14T16:15:21.673Z,11.93
2023-02-14T16:20:52.982Z,10.95
2023-02-14T16:26:24.110Z,9.70
2023-02-14T16:32:16.067Z,10.75
2023-02-14T16:37:50.042Z,10.85
2023-02-14T16:43:21.499Z,10.23
2023-02-14T16:48:53.179Z,12.15
2023-02-14T16:54:25.568Z,10.85
2023-02-14T16:59:57.318Z,11.35
2023-02-14T17:05:28.779Z,11.40
2023-02-14T17:11:02.362Z,11.20
2023-02-14T17:16:34.317Z,10.95
2023-02-14T17:22:05.662Z,11.63
2023-02-14T17:27:37.737Z,11.00
2023-02-14T17:33:09.129Z,11.75
2023-02-14T17:38:43.604Z,11.70
2023-02-14T17:44:14.641Z,10.80
2023-02-14T17:49:49.410Z,11.77
2023-02-14T17:55:20.439Z,12.45
2023-02-14T18:00:51.451Z,11.00
2023-02-14T18:06:23.366Z,11.45
2023-02-14T18:11:55.972Z,10.85
2023-02-14T18:17:27.296Z,12.43
2023-02-14T18:22:58.428Z,11.70
2023-02-14T18:28:29.754Z,12.32
2023-02-14T18:34:03.925Z,12.25
2023-02-14T18:39:35.276Z,12.10
2023-02-14T18:45:07.961Z,12.20
2023-02-14T18:50:39.336Z,12.18
2023-02-14T18:56:13.290Z,12.88
2023-02-14T19:01:45.657Z,13.43
2023-02-14T19:07:17.020Z,12.95
2023-02-14T19:12:48.564Z,13.35
2023-02-14T19:18:20.673Z,13.07
2023-02-14T19:23:53.688Z,11.85
2023-02-14T19:39:06.024Z,12.13
2023-02-14T19:49:28.682Z,11.55
2023-02-14T19:59:50.123Z,11.65
2023-02-14T20:10:12.206Z,11.88
2023-02-14T20:20:53.572Z,13.77
2023-02-14T20:31:16.723Z,11.60
2023-02-14T20:41:38.416Z,11.32
2023-02-14T20:52:00.011Z,13.13
2023-02-14T21:02:21.452Z,11.48
2023-02-14T21:12:43.191Z,11.93
2023-02-14T21:23:04.480Z,12.43
2023-02-14T21:33:25.596Z,10.93
2023-02-14T21:43:48.042Z,11.93
2023-02-14T21:54:10.020Z,12.65
2023-02-14T22:04:31.002Z,12.88
2023-02-14T22:14:51.962Z,12.50
2023-02-14T22:25:13.225Z,12.40
2023-02-14T22:35:34.574Z,13.20
2023-02-14T22:45:56.187Z,12.43
2023-02-14T22:56:47.676Z,12.00
2023-02-14T23:07:11.571Z,11.70
2023-02-14T23:17:51.108Z,12.20
2023-02-14T23:28:13.258Z,11.75
2023-02-14T23:38:34.610Z,11.43
2023-02-14T23:48:55.987Z,11.35
2023-02-14T23:59:17.385Z,10.10
